sensor_id;sensor_type;location;lat;lon;timestamp;pressure;altitude;pressure_sealevel;temperature;humidity
31681;BME280;18281;51.364;9.566;2023-04-29T00:01:29;99483.25;;;8.95;100.00
31681;BME280;18281;51.364;9.566;2023-04-29T00:03:55;99482.47;;;8.93;100.00
31681;BME280;18281;51.364;9.566;2023-04-29T00:06:20;99485.94;;;8.93;100.00
31681;BME280;18281;51.364;9.566;2023-04-29T00:08:46;99483.31;;;8.93;100.00
31681;BME280;18281;51.364;9.566;2023-04-29T00:11:11;99485.09;;;8.93;100.00
31681;BME280;18281;51.364;9.566;2023-04-29T00:13:37;99486.00;;;8.91;100.00
31681;BME280;18281;51.364;9.566;2023-04-29T00:16:05;99481.72;;;8.90;100.00
31681;BME280;18281;51.364;9.566;2023-04-29T00:18:31;99487.78;;;8.91;100.00
31681;BME280;18281;51.364;9.566;2023-04-29T00:20:57;99493.13;;;8.89;100.00
31681;BME280;18281;51.364;9.566;2023-04-29T00:23:22;99491.44;;;8.88;100.00
31681;BME280;18281;51.364;9.566;2023-04-29T00:25:47;99487.88;;;8.89;100.00
31681;BME280;18281;51.364;9.566;2023-04-29T00:28:13;99488.72;;;8.90;100.00
31681;BME280;18281;51.364;9.566;2023-04-29T00:30:38;99487.88;;;8.89;100.00
31681;BME280;18281;51.364;9.566;2023-04-29T00:33:03;99500.13;;;8.89;100.00
31681;BME280;18281;51.364;9.566;2023-04-29T00:35:28;99507.03;;;8.90;100.00
31681;BME280;18281;51.364;9.566;2023-04-29T00:37:54;99507.91;;;8.90;100.00
31681;BME280;18281;51.364;9.566;2023-04-29T00:40:19;99517.59;;;8.88;100.00
31681;BME280;18281;51.364;9.566;2023-04-29T00:42:45;99509.75;;;8.88;100.00
31681;BME280;18281;51.364;9.566;2023-04-29T00:45:10;99507.22;;;8.87;100.00
31681;BME280;18281;51.364;9.566;2023-04-29T00:47:36;99510.78;;;8.86;100.00
31681;BME280;18281;51.364;9.566;2023-04-29T00:50:06;99515.09;;;8.87;100.00
31681;BME280;18281;51.364;9.566;2023-04-29T00:52:31;99522.94;;;8.87;100.00
31681;BME280;18281;51.364;9.566;2023-04-29T00:54:57;99521.25;;;8.86;100.00
31681;BME280;18281;51.364;9.566;2023-04-29T00:57:23;99520.22;;;8.88;100.00
31681;BME280;18281;51.364;9.566;2023-04-29T00:59:49;99522.94;;;8.87;100.00
31681;BME280;18281;51.364;9.566;2023-04-29T01:02:15;99521.16;;;8.87;100.00
31681;BME280;18281;51.364;9.566;2023-04-29T01:04:41;99523.94;;;8.84;100.00
31681;BME280;18281;51.364;9.566;2023-04-29T01:07:14;99523.75;;;8.87;100.00
31681;BME280;18281;51.364;9.566;2023-04-29T01:10:14;99525.47;;;8.88;100.00
31681;BME280;18281;51.364;9.566;2023-04-29T01:13:06;99529.78;;;8.89;100.00
31681;BME280;18281;51.364;9.566;2023-04-29T01:18:11;99527.25;;;8.88;100.00
31681;BME280;18281;51.364;9.566;2023-04-29T01:20:39;99524.63;;;8.88;100.00
31681;BME280;18281;51.364;9.566;2023-04-29T01:23:06;99533.31;;;8.88;100.00
31681;BME280;18281;51.364;9.566;2023-04-29T01:25:31;99538.47;;;8.90;100.00
31681;BME280;18281;51.364;9.566;2023-04-29T01:30:41;99537.63;;;8.89;100.00
31681;BME280;18281;51.364;9.566;2023-04-29T01:33:39;99537.63;;;8.89;100.00
31681;BME280;18281;51.364;9.566;2023-04-29T01:42:47;99549.03;;;8.88;100.00
31681;BME280;18281;51.364;9.566;2023-04-29T01:45:17;99545.56;;;8.88;100.00
31681;BME280;18281;51.364;9.566;2023-04-29T01:47:45;99548.19;;;8.88;100.00
31681;BME280;18281;51.364;9.566;2023-04-29T01:50:11;99553.44;;;8.88;100.00
31681;BME280;18281;51.364;9.566;2023-04-29T01:52:36;99551.81;;;8.85;100.00
31681;BME280;18281;51.364;9.566;2023-04-29T01:55:02;99551.81;;;8.85;100.00
31681;BME280;18281;51.364;9.566;2023-04-29T01:57:28;99552.75;;;8.84;100.00
31681;BME280;18281;51.364;9.566;2023-04-29T01:59:53;99552.75;;;8.84;100.00
31681;BME280;18281;51.364;9.566;2023-04-29T02:02:19;99550.91;;;8.86;100.00
31681;BME280;18281;51.364;9.566;2023-04-29T02:04:48;99557.06;;;8.85;100.00
31681;BME280;18281;51.364;9.566;2023-04-29T02:07:15;99562.38;;;8.84;100.00
31681;BME280;18281;51.364;9.566;2023-04-29T02:09:40;99565.00;;;8.84;100.00
31681;BME280;18281;51.364;9.566;2023-04-29T02:12:05;99569.22;;;8.86;100.00
31681;BME280;18281;51.364;9.566;2023-04-29T02:14:31;99570.22;;;8.84;100.00
31681;BME280;18281;51.364;9.566;2023-04-29T02:16:58;99563.22;;;8.84;100.00
31681;BME280;18281;51.364;9.566;2023-04-29T02:19:24;99565.75;;;8.86;100.00
31681;BME280;18281;51.364;9.566;2023-04-29T02:21:49;99577.91;;;8.87;100.00
31681;BME280;18281;51.364;9.566;2023-04-29T02:24:14;99581.53;;;8.84;100.00
31681;BME280;18281;51.364;9.566;2023-04-29T02:26:40;99578.00;;;8.85;100.00
31681;BME280;18281;51.364;9.566;2023-04-29T02:29:05;99574.50;;;8.85;100.00
31681;BME280;18281;51.364;9.566;2023-04-29T02:31:31;99583.97;;;8.87;100.00
31681;BME280;18281;51.364;9.566;2023-04-29T02:33:56;99579.69;;;8.86;100.00
31681;BME280;18281;51.364;9.566;2023-04-29T02:36:22;99586.69;;;8.86;100.00
31681;BME280;18281;51.364;9.566;2023-04-29T02:38:48;99583.13;;;8.87;100.00
31681;BME280;18281;51.364;9.566;2023-04-29T02:41:17;99591.09;;;8.85;100.00
31681;BME280;18281;51.364;9.566;2023-04-29T02:43:43;99592.78;;;8.86;100.00
31681;BME280;18281;51.364;9.566;2023-04-29T02:46:08;99583.88;;;8.89;100.00
31681;BME280;18281;51.364;9.566;2023-04-29T02:48:34;99590.91;;;8.88;100.00
31681;BME280;18281;51.364;9.566;2023-04-29T02:50:59;99584.75;;;8.89;100.00
31681;BME280;18281;51.364;9.566;2023-04-29T02:53:25;99590.16;;;8.86;100.00
31681;BME280;18281;51.364;9.566;2023-04-29T02:55:50;99588.28;;;8.88;100.00
31681;BME280;18281;51.364;9.566;2023-04-29T02:58:15;99590.06;;;8.88;100.00
31681;BME280;18281;51.364;9.566;2023-04-29T03:00:41;99590.06;;;8.88;100.00
31681;BME280;18281;51.364;9.566;2023-04-29T03:03:06;99591.81;;;8.87;100.00
31681;BME280;18281;51.364;9.566;2023-04-29T03:05:31;99576.97;;;8.88;100.00
31681;BME280;18281;51.364;9.566;2023-04-29T03:07:57;99574.47;;;8.86;100.00
31681;BME280;18281;51.364;9.566;2023-04-29T03:10:22;99576.31;;;8.84;100.00
31681;BME280;18281;51.364;9.566;2023-04-29T03:12:47;99586.94;;;8.81;100.00
31681;BME280;18281;51.364;9.566;2023-04-29T03:15:13;99584.25;;;8.83;100.00
31681;BME280;18281;51.364;9.566;2023-04-29T03:17:39;99583.31;;;8.84;100.00
31681;BME280;18281;51.364;9.566;2023-04-29T03:20:05;99581.03;;;8.78;100.00
31681;BME280;18281;51.364;9.566;2023-04-29T03:22:31;99575.88;;;8.76;100.00
31681;BME280;18281;51.364;9.566;2023-04-29T03:24:57;99581.03;;;8.78;100.00
31681;BME280;18281;51.364;9.566;2023-04-29T03:27:22;99586.44;;;8.74;100.00
31681;BME280;18281;51.364;9.566;2023-04-29T03:29:48;99586.53;;;8.73;100.00
31681;BME280;18281;51.364;9.566;2023-04-29T03:32:13;99589.28;;;8.70;100.00
31681;BME280;18281;51.364;9.566;2023-04-29T03:34:38;99593.00;;;8.66;100.00
31681;BME280;18281;51.364;9.566;2023-04-29T03:37:04;99588.78;;;8.63;100.00
31681;BME280;18281;51.364;9.566;2023-04-29T03:39:30;99598.41;;;8.63;100.00
31681;BME280;18281;51.364;9.566;2023-04-29T03:41:57;99592.59;;;8.57;100.00
31681;BME280;18281;51.364;9.566;2023-04-29T03:44:23;99592.75;;;8.54;100.00
31681;BME280;18281;51.364;9.566;2023-04-29T03:46:49;99599.00;;;8.52;100.00
31681;BME280;18281;51.364;9.566;2023-04-29T03:49:14;99595.38;;;8.54;100.00
31681;BME280;18281;51.364;9.566;2023-04-29T03:51:40;99600.75;;;8.51;100.00
31681;BME280;18281;51.364;9.566;2023-04-29T03:54:06;99592.84;;;8.53;100.00
31681;BME280;18281;51.364;9.566;2023-04-29T03:56:31;99603.38;;;8.51;100.00
31681;BME280;18281;51.364;9.566;2023-04-29T03:58:56;99600.75;;;8.51;100.00
31681;BME280;18281;51.364;9.566;2023-04-29T04:01:22;99605.16;;;8.51;100.00
31681;BME280;18281;51.364;9.566;2023-04-29T04:03:47;99607.69;;;8.52;100.00
31681;BME280;18281;51.364;9.566;2023-04-29T04:06:13;99609.56;;;8.50;100.00
31681;BME280;18281;51.364;9.566;2023-04-29T04:08:38;99607.00;;;8.49;100.00
31681;BME280;18281;51.364;9.566;2023-04-29T04:11:05;99608.69;;;8.50;100.00
31681;BME280;18281;51.364;9.566;2023-04-29T04:13:31;99619.16;;;8.50;100.00
31681;BME280;18281;51.364;9.566;2023-04-29T04:15:56;99620.00;;;8.50;100.00
31681;BME280;18281;51.364;9.566;2023-04-29T04:18:22;99631.41;;;8.49;100.00
31681;BME280;18281;51.364;9.566;2023-04-29T04:20:47;99628.94;;;8.46;100.00
31681;BME280;18281;51.364;9.566;2023-04-29T04:23:13;99638.47;;;8.47;100.00
31681;BME280;18281;51.364;9.566;2023-04-29T04:25:44;99634.94;;;8.48;100.00
31681;BME280;18281;51.364;9.566;2023-04-29T04:28:10;99647.31;;;8.45;100.00
31681;BME280;18281;51.364;9.566;2023-04-29T04:30:35;99643.09;;;8.42;100.00
31681;BME280;18281;51.364;9.566;2023-04-29T04:33:01;99649.03;;;8.46;100.00
31681;BME280;18281;51.364;9.566;2023-04-29T04:35:26;99660.47;;;8.43;100.00
31681;BME280;18281;51.364;9.566;2023-04-29T04:37:52;99655.25;;;8.43;100.00
31681;BME280;18281;51.364;9.566;2023-04-29T04:40:17;99659.75;;;8.41;100.00
31681;BME280;18281;51.364;9.566;2023-04-29T04:42:42;99665.06;;;8.39;100.00
31681;BME280;18281;51.364;9.566;2023-04-29T04:45:08;99662.72;;;8.33;100.00
31681;BME280;18281;51.364;9.566;2023-04-29T04:47:35;99666.81;;;8.39;100.00
31681;BME280;18281;51.364;9.566;2023-04-29T04:50:01;99666.81;;;8.39;100.00
31681;BME280;18281;51.364;9.566;2023-04-29T04:52:28;99665.25;;;8.35;100.00
31681;BME280;18281;51.364;9.566;2023-04-29T04:54:53;99667.72;;;8.38;100.00
31681;BME280;18281;51.364;9.566;2023-04-29T04:57:18;99668.59;;;8.38;100.00
31681;BME280;18281;51.364;9.566;2023-04-29T04:59:43;99673.81;;;8.38;100.00
31681;BME280;18281;51.364;9.566;2023-04-29T05:02:09;99675.56;;;8.38;100.00
31681;BME280;18281;51.364;9.566;2023-04-29T05:04:34;99682.41;;;8.40;100.00
31681;BME280;18281;51.364;9.566;2023-04-29T05:06:59;99688.50;;;8.41;100.00
31681;BME280;18281;51.364;9.566;2023-04-29T05:09:25;99684.13;;;8.41;100.00
31681;BME280;18281;51.364;9.566;2023-04-29T05:11:51;99695.56;;;8.39;100.00
31681;BME280;18281;51.364;9.566;2023-04-29T05:14:16;99699.97;;;8.38;100.00
31681;BME280;18281;51.364;9.566;2023-04-29T05:16:42;99705.13;;;8.40;100.00
31681;BME280;18281;51.364;9.566;2023-04-29T05:19:09;99707.91;;;8.37;100.00
31681;BME280;18281;51.364;9.566;2023-04-29T05:21:34;99712.97;;;8.40;100.00
31681;BME280;18281;51.364;9.566;2023-04-29T05:23:59;99709.53;;;8.39;100.00
31681;BME280;18281;51.364;9.566;2023-04-29T05:26:25;99711.28;;;8.39;100.00
31681;BME280;18281;51.364;9.566;2023-04-29T05:28:50;99709.53;;;8.39;100.00
31681;BME280;18281;51.364;9.566;2023-04-29T05:31:16;99713.88;;;8.39;100.00
31681;BME280;18281;51.364;9.566;2023-04-29T05:33:41;99719.91;;;8.41;100.00
31681;BME280;18281;51.364;9.566;2023-04-29T05:36:06;99725.13;;;8.41;100.00
31681;BME280;18281;51.364;9.566;2023-04-29T05:38:32;99722.66;;;8.38;100.00
31681;BME280;18281;51.364;9.566;2023-04-29T05:40:57;99725.56;;;8.32;100.00
31681;BME280;18281;51.364;9.566;2023-04-29T05:43:23;99729.75;;;8.36;100.00
31681;BME280;18281;51.364;9.566;2023-04-29T05:45:49;99736.69;;;8.37;100.00
31681;BME280;18281;51.364;9.566;2023-04-29T05:48:14;99733.19;;;8.36;100.00
31681;BME280;18281;51.364;9.566;2023-04-29T05:50:40;99733.19;;;8.36;100.00
31681;BME280;18281;51.364;9.566;2023-04-29T05:53:06;99748.06;;;8.36;100.00
31681;BME280;18281;51.364;9.566;2023-04-29T05:55:31;99746.19;;;8.38;100.00
31681;BME280;18281;51.364;9.566;2023-04-29T05:57:57;99739.41;;;8.34;100.00
31681;BME280;18281;51.364;9.566;2023-04-29T06:00:22;99748.91;;;8.36;100.00
31681;BME280;18281;51.364;9.566;2023-04-29T06:02:47;99756.66;;;8.38;100.00
31681;BME280;18281;51.364;9.566;2023-04-29T06:05:13;99760.97;;;8.39;100.00
31681;BME280;18281;51.364;9.566;2023-04-29T06:07:39;99764.50;;;8.38;100.00
31681;BME280;18281;51.364;9.566;2023-04-29T06:10:06;99765.47;;;8.37;100.00
31681;BME280;18281;51.364;9.566;2023-04-29T06:12:31;99767.22;;;8.36;100.00
31681;BME280;18281;51.364;9.566;2023-04-29T06:14:56;99775.91;;;8.37;100.00
31681;BME280;18281;51.364;9.566;2023-04-29T06:17:22;99779.59;;;8.68;100.00
31681;BME280;18281;51.364;9.566;2023-04-29T06:19:47;99782.22;;;9.01;100.00
31681;BME280;18281;51.364;9.566;2023-04-29T06:22:13;99784.63;;;9.22;100.00
31681;BME280;18281;51.364;9.566;2023-04-29T06:24:38;99783.19;;;9.32;100.00
31681;BME280;18281;51.364;9.566;2023-04-29T06:27:03;99790.13;;;9.49;100.00
31681;BME280;18281;51.364;9.566;2023-04-29T06:29:29;99791.50;;;9.56;100.00
31681;BME280;18281;51.364;9.566;2023-04-29T06:31:54;99798.81;;;9.67;100.00
31681;BME280;18281;51.364;9.566;2023-04-29T06:34:20;99797.69;;;9.71;100.00
31681;BME280;18281;51.364;9.566;2023-04-29T06:36:45;99808.69;;;9.78;100.00
31681;BME280;18281;51.364;9.566;2023-04-29T06:39:11;99809.28;;;9.83;100.00
31681;BME280;18281;51.364;9.566;2023-04-29T06:41:36;99809.97;;;9.87;100.00
31681;BME280;18281;51.364;9.566;2023-04-29T06:44:02;99817.66;;;9.90;100.00
31681;BME280;18281;51.364;9.566;2023-04-29T06:46:27;99814.66;;;9.96;100.00
31681;BME280;18281;51.364;9.566;2023-04-29T06:48:54;99818.16;;;9.97;100.00
31681;BME280;18281;51.364;9.566;2023-04-29T06:51:19;99820.69;;;9.98;100.00
31681;BME280;18281;51.364;9.566;2023-04-29T06:53:44;99824.63;;;10.05;100.00
31681;BME280;18281;51.364;9.566;2023-04-29T06:56:11;99835.06;;;10.07;100.00
31681;BME280;18281;51.364;9.566;2023-04-29T06:58:36;99826.75;;;10.15;100.00
31681;BME280;18281;51.364;9.566;2023-04-29T07:01:01;99840.97;;;10.11;100.00
31681;BME280;18281;51.364;9.566;2023-04-29T07:03:28;99841.66;;;10.14;100.00
31681;BME280;18281;51.364;9.566;2023-04-29T07:05:53;99840.81;;;10.14;100.00
31681;BME280;18281;51.364;9.566;2023-04-29T07:08:18;99847.72;;;10.15;100.00
31681;BME280;18281;51.364;9.566;2023-04-29T07:10:52;99850.94;;;10.20;100.00
31681;BME280;18281;51.364;9.566;2023-04-29T07:13:18;99845.59;;;10.21;100.00
31681;BME280;18281;51.364;9.566;2023-04-29T07:15:43;99852.13;;;10.30;100.00
31681;BME280;18281;51.364;9.566;2023-04-29T07:18:09;99860.09;;;10.29;100.00
31681;BME280;18281;51.364;9.566;2023-04-29T07:20:37;99859.91;;;10.32;100.00
31681;BME280;18281;51.364;9.566;2023-04-29T07:23:03;99865.84;;;10.35;100.00
31681;BME280;18281;51.364;9.566;2023-04-29T07:25:28;99868.00;;;10.43;100.00
31681;BME280;18281;51.364;9.566;2023-04-29T07:27:54;99872.50;;;10.41;100.00
31681;BME280;18281;51.364;9.566;2023-04-29T07:30:20;99878.69;;;10.40;100.00
31681;BME280;18281;51.364;9.566;2023-04-29T07:32:46;99875.31;;;10.38;100.00
31681;BME280;18281;51.364;9.566;2023-04-29T07:35:11;99884.44;;;10.47;100.00
31681;BME280;18281;51.364;9.566;2023-04-29T07:37:36;99892.38;;;10.45;100.00
31681;BME280;18281;51.364;9.566;2023-04-29T07:40:02;99887.66;;;10.36;100.00
31681;BME280;18281;51.364;9.566;2023-04-29T07:42:27;99886.47;;;10.25;100.00
31681;BME280;18281;51.364;9.566;2023-04-29T07:44:52;99894.81;;;10.18;100.00
31681;BME280;18281;51.364;9.566;2023-04-29T07:47:18;99897.16;;;10.06;100.00
31681;BME280;18281;51.364;9.566;2023-04-29T07:49:43;99904.59;;;9.98;100.00
31681;BME280;18281;51.364;9.566;2023-04-29T07:52:08;99907.13;;;9.84;100.00
31681;BME280;18281;51.364;9.566;2023-04-29T07:54:37;99914.25;;;9.82;100.00
31681;BME280;18281;51.364;9.566;2023-04-29T07:57:03;99918.63;;;9.81;100.00
31681;BME280;18281;51.364;9.566;2023-04-29T07:59:31;99916.88;;;9.82;100.00
31681;BME280;18281;51.364;9.566;2023-04-29T08:01:57;99920.50;;;9.79;100.00
31681;BME280;18281;51.364;9.566;2023-04-29T08:04:22;99921.59;;;9.75;100.00
31681;BME280;18281;51.364;9.566;2023-04-29T08:06:48;99924.31;;;9.73;100.00
31681;BME280;18281;51.364;9.566;2023-04-29T08:09:14;99931.41;;;9.71;100.00
31681;BME280;18281;51.364;9.566;2023-04-29T08:11:40;99930.88;;;9.65;100.00
31681;BME280;18281;51.364;9.566;2023-04-29T08:14:05;99940.72;;;9.59;100.00
31681;BME280;18281;51.364;9.566;2023-04-29T08:16:30;99940.72;;;9.59;100.00
31681;BME280;18281;51.364;9.566;2023-04-29T08:18:56;99946.97;;;9.57;100.00
31681;BME280;18281;51.364;9.566;2023-04-29T08:21:22;99944.25;;;9.58;100.00
31681;BME280;18281;51.364;9.566;2023-04-29T08:23:47;99946.97;;;9.57;100.00
31681;BME280;18281;51.364;9.566;2023-04-29T08:26:13;99951.38;;;9.56;100.00
31681;BME280;18281;51.364;9.566;2023-04-29T08:28:38;99950.44;;;9.57;100.00
31681;BME280;18281;51.364;9.566;2023-04-29T08:31:04;99948.75;;;9.56;100.00
31681;BME280;18281;51.364;9.566;2023-04-29T08:33:33;99954.75;;;9.58;100.00
31681;BME280;18281;51.364;9.566;2023-04-29T08:35:58;99955.75;;;9.56;100.00
31681;BME280;18281;51.364;9.566;2023-04-29T08:38:24;99959.97;;;9.58;100.00
31681;BME280;18281;51.364;9.566;2023-04-29T08:40:50;99957.38;;;9.58;100.00
31681;BME280;18281;51.364;9.566;2023-04-29T08:43:16;99968.72;;;9.59;100.00
31681;BME280;18281;51.364;9.566;2023-04-29T08:45:42;99957.44;;;9.57;100.00
31681;BME280;18281;51.364;9.566;2023-04-29T08:48:08;99965.22;;;9.58;100.00
31681;BME280;18281;51.364;9.566;2023-04-29T08:50:38;99961.00;;;9.56;100.00
31681;BME280;18281;51.364;9.566;2023-04-29T08:53:08;99976.56;;;9.59;100.00
31681;BME280;18281;51.364;9.566;2023-04-29T08:55:36;99972.16;;;9.59;100.00
31681;BME280;18281;51.364;9.566;2023-04-29T08:58:04;99970.47;;;9.58;100.00
31681;BME280;18281;51.364;9.566;2023-04-29T09:00:31;99981.13;;;9.55;100.00
31681;BME280;18281;51.364;9.566;2023-04-29T09:02:57;99979.41;;;9.54;100.00
31681;BME280;18281;51.364;9.566;2023-04-29T09:05:24;99982.81;;;9.56;100.00
31681;BME280;18281;51.364;9.566;2023-04-29T09:07:51;99979.13;;;9.61;100.00
31681;BME280;18281;51.364;9.566;2023-04-29T09:10:17;99989.47;;;9.64;100.00
31681;BME280;18281;51.364;9.566;2023-04-29T09:12:43;99984.28;;;9.62;100.00
31681;BME280;18281;51.364;9.566;2023-04-29T09:15:09;99989.75;;;9.57;100.00
31681;BME280;18281;51.364;9.566;2023-04-29T09:17:47;99985.44;;;9.56;100.00
31681;BME280;18281;51.364;9.566;2023-04-29T09:22:51;100000.25;;;9.57;100.00
31681;BME280;18281;51.364;9.566;2023-04-29T09:25:17;100001.25;;;9.55;100.00
31681;BME280;18281;51.364;9.566;2023-04-29T09:27:42;99999.25;;;9.60;100.00
31681;BME280;18281;51.364;9.566;2023-04-29T09:30:08;100001.88;;;9.60;100.00
31681;BME280;18281;51.364;9.566;2023-04-29T09:32:34;100004.41;;;9.62;100.00
31681;BME280;18281;51.364;9.566;2023-04-29T09:35:26;100004.50;;;9.60;100.00
31681;BME280;18281;51.364;9.566;2023-04-29T09:37:52;100014.50;;;9.52;100.00
31681;BME280;18281;51.364;9.566;2023-04-29T09:40:31;100017.53;;;9.44;100.00
31681;BME280;18281;51.364;9.566;2023-04-29T09:43:00;100018.13;;;9.49;100.00
31681;BME280;18281;51.364;9.566;2023-04-29T09:45:33;100019.69;;;9.53;100.00
31681;BME280;18281;51.364;9.566;2023-04-29T09:48:04;100023.06;;;9.55;100.00
31681;BME280;18281;51.364;9.566;2023-04-29T09:50:34;100026.50;;;9.56;100.00
31681;BME280;18281;51.364;9.566;2023-04-29T09:53:03;100035.16;;;9.58;100.00
31681;BME280;18281;51.364;9.566;2023-04-29T09:55:29;100030.69;;;9.60;100.00
31681;BME280;18281;51.364;9.566;2023-04-29T09:57:56;100033.09;;;9.65;100.00
31681;BME280;18281;51.364;9.566;2023-04-29T10:00:21;100036.66;;;9.64;100.00
31681;BME280;18281;51.364;9.566;2023-04-29T10:02:48;100040.06;;;9.66;100.00
31681;BME280;18281;51.364;9.566;2023-04-29T10:05:14;100039.78;;;9.70;100.00
31681;BME280;18281;51.364;9.566;2023-04-29T10:07:41;100041.59;;;9.70;100.00
31681;BME280;18281;51.364;9.566;2023-04-29T10:10:08;100036.16;;;9.73;100.00
31681;BME280;18281;51.364;9.566;2023-04-29T10:12:35;100041.25;;;9.76;100.00
31681;BME280;18281;51.364;9.566;2023-04-29T10:15:27;100042.03;;;9.78;100.00
31681;BME280;18281;51.364;9.566;2023-04-29T10:18:13;100040.94;;;9.82;100.00
31681;BME280;18281;51.364;9.566;2023-04-29T10:20:45;100041.84;;;9.81;100.00
31681;BME280;18281;51.364;9.566;2023-04-29T10:23:12;100051.97;;;9.89;100.00
31681;BME280;18281;51.364;9.566;2023-04-29T10:25:39;100054.41;;;9.92;100.00
31681;BME280;18281;51.364;9.566;2023-04-29T10:28:08;100059.59;;;9.94;100.00
31681;BME280;18281;51.364;9.566;2023-04-29T10:30:37;100051.88;;;9.90;100.00
31681;BME280;18281;51.364;9.566;2023-04-29T10:33:03;100057.13;;;9.90;100.00
31681;BME280;18281;51.364;9.566;2023-04-29T10:35:30;100061.28;;;9.95;100.00
31681;BME280;18281;51.364;9.566;2023-04-29T10:38:00;100062.06;;;9.97;100.00
31681;BME280;18281;51.364;9.566;2023-04-29T10:40:44;100066.13;;;10.02;100.00
31681;BME280;18281;51.364;9.566;2023-04-29T10:43:12;100065.28;;;10.02;100.00
31681;BME280;18281;51.364;9.566;2023-04-29T10:45:38;100067.91;;;10.02;100.00
31681;BME280;18281;51.364;9.566;2023-04-29T10:53:06;100072.81;;;10.08;100.00
31681;BME280;18281;51.364;9.566;2023-04-29T10:55:35;100070.19;;;10.08;100.00
31681;BME280;18281;51.364;9.566;2023-04-29T10:58:03;100074.53;;;10.09;100.00
31681;BME280;18281;51.364;9.566;2023-04-29T11:00:30;100077.75;;;10.14;100.00
31681;BME280;18281;51.364;9.566;2023-04-29T11:02:57;100077.75;;;10.14;100.00
31681;BME280;18281;51.364;9.566;2023-04-29T11:05:33;100082.81;;;10.17;100.00
31681;BME280;18281;51.364;9.566;2023-04-29T11:08:19;100080.13;;;10.19;100.00
31681;BME280;18281;51.364;9.566;2023-04-29T11:10:52;100082.50;;;10.23;100.00
31681;BME280;18281;51.364;9.566;2023-04-29T11:13:26;100083.25;;;10.25;100.00
31681;BME280;18281;51.364;9.566;2023-04-29T11:16:05;100087.84;;;10.22;100.00
31681;BME280;18281;51.364;9.566;2023-04-29T11:18:32;100091.84;;;10.29;100.00
31681;BME280;18281;51.364;9.566;2023-04-29T11:23:33;100093.28;;;10.35;100.00
31681;BME280;18281;51.364;9.566;2023-04-29T11:25:58;100097.78;;;10.33;100.00
31681;BME280;18281;51.364;9.566;2023-04-29T11:28:26;100094.06;;;10.37;100.00
31681;BME280;18281;51.364;9.566;2023-04-29T11:30:52;100093.19;;;10.36;100.00
31681;BME280;18281;51.364;9.566;2023-04-29T11:33:18;100092.25;;;10.37;100.00
31681;BME280;18281;51.364;9.566;2023-04-29T11:35:44;100103.63;;;10.38;100.00
31681;BME280;18281;51.364;9.566;2023-04-29T11:38:11;100104.56;;;10.37;100.00
31681;BME280;18281;51.364;9.566;2023-04-29T11:40:49;100105.38;;;10.37;100.00
31681;BME280;18281;51.364;9.566;2023-04-29T11:43:19;100113.03;;;10.42;100.00
31681;BME280;18281;51.364;9.566;2023-04-29T11:45:49;100107.94;;;10.39;100.00
31681;BME280;18281;51.364;9.566;2023-04-29T11:48:22;100108.78;;;10.39;100.00
31681;BME280;18281;51.364;9.566;2023-04-29T11:50:50;100117.59;;;10.38;100.00
31681;BME280;18281;51.364;9.566;2023-04-29T11:53:18;100116.56;;;10.41;100.00
31681;BME280;18281;51.364;9.566;2023-04-29T11:55:44;100122.53;;;10.45;100.00
31681;BME280;18281;51.364;9.566;2023-04-29T11:58:10;100123.44;;;10.44;100.00
31681;BME280;18281;51.364;9.566;2023-04-29T12:00:36;100125.06;;;10.46;100.00
31681;BME280;18281;51.364;9.566;2023-04-29T12:03:06;100128.78;;;10.42;100.00
31681;BME280;18281;51.364;9.566;2023-04-29T12:05:32;100134.78;;;10.44;100.00
31681;BME280;18281;51.364;9.566;2023-04-29T12:07:58;100133.06;;;10.43;100.00
31681;BME280;18281;51.364;9.566;2023-04-29T12:10:23;100134.88;;;10.42;100.00
31681;BME280;18281;51.364;9.566;2023-04-29T12:12:48;100135.78;;;10.41;100.00
31681;BME280;18281;51.364;9.566;2023-04-29T12:15:14;100129.69;;;10.41;100.00
31681;BME280;18281;51.364;9.566;2023-04-29T12:17:41;100133.94;;;10.44;100.00
31681;BME280;18281;51.364;9.566;2023-04-29T12:20:07;100133.25;;;10.40;100.00
31681;BME280;18281;51.364;9.566;2023-04-29T12:22:35;100133.06;;;10.43;100.00
31681;BME280;18281;51.364;9.566;2023-04-29T12:25:05;100135.69;;;10.43;100.00
31681;BME280;18281;51.364;9.566;2023-04-29T12:27:31;100132.94;;;10.46;100.00
31681;BME280;18281;51.364;9.566;2023-04-29T12:29:57;100138.94;;;10.48;100.00
31681;BME280;18281;51.364;9.566;2023-04-29T12:32:23;100139.88;;;10.47;100.00
31681;BME280;18281;51.364;9.566;2023-04-29T12:34:51;100135.38;;;10.49;100.00
31681;BME280;18281;51.364;9.566;2023-04-29T12:37:17;100138.94;;;10.48;100.00
31681;BME280;18281;51.364;9.566;2023-04-29T12:39:43;100144.13;;;10.32;100.00
31681;BME280;18281;51.364;9.566;2023-04-29T12:42:14;100143.56;;;10.43;100.00
31681;BME280;18281;51.364;9.566;2023-04-29T12:44:46;100155.47;;;10.50;100.00
31681;BME280;18281;51.364;9.566;2023-04-29T12:47:12;100149.28;;;10.51;100.00
31681;BME280;18281;51.364;9.566;2023-04-29T12:49:45;100149.88;;;10.56;100.00
31681;BME280;18281;51.364;9.566;2023-04-29T12:52:10;100153.38;;;10.57;100.00
31681;BME280;18281;51.364;9.566;2023-04-29T12:54:37;100146.41;;;10.56;100.00
31681;BME280;18281;51.364;9.566;2023-04-29T12:57:05;100146.19;;;10.61;100.00
31681;BME280;18281;51.364;9.566;2023-04-29T12:59:30;100151.34;;;10.62;100.00
31681;BME280;18281;51.364;9.566;2023-04-29T13:01:55;100151.16;;;10.65;100.00
31681;BME280;18281;51.364;9.566;2023-04-29T13:04:21;100150.34;;;10.65;100.00
31681;BME280;18281;51.364;9.566;2023-04-29T13:06:46;100157.25;;;10.66;100.00
31681;BME280;18281;51.364;9.566;2023-04-29T13:09:11;100159.13;;;10.64;100.00
31681;BME280;18281;51.364;9.566;2023-04-29T13:11:37;100153.72;;;10.67;100.00
31681;BME280;18281;51.364;9.566;2023-04-29T13:14:06;100157.44;;;10.63;100.00
31681;BME280;18281;51.364;9.566;2023-04-29T13:16:32;100154.72;;;10.64;100.00